createdAt,value
2019-04-07T00:00:50.531Z,99294.78
2019-04-07T00:03:53.199Z,99292.33
2019-04-07T00:06:56.046Z,99298.86
2019-04-07T00:09:58.308Z,99291.77
2019-04-07T00:13:00.219Z,99290.66
2019-04-07T00:16:03.555Z,99285.75
2019-04-07T00:19:05.515Z,99284.72
2019-04-07T00:22:07.947Z,99291.01
2019-04-07T00:25:10.563Z,99283.66
2019-04-07T00:28:12.850Z,99284.17
2019-04-07T00:31:14.798Z,99276.53
2019-04-07T00:34:17.471Z,99275.70
2019-04-07T00:37:19.773Z,99272.11
2019-04-07T00:40:22.400Z,99276.26
2019-04-07T00:43:24.477Z,99274.11
2019-04-07T00:46:26.851Z,99272.50
2019-04-07T00:49:29.683Z,99267.89
2019-04-07T00:52:31.749Z,99270.37
2019-04-07T00:55:34.291Z,99273.66
2019-04-07T00:58:36.939Z,99273.91
2019-04-07T01:01:39.181Z,99282.40
2019-04-07T01:04:41.907Z,99270.11
2019-04-07T01:07:43.933Z,99280.77
2019-04-07T01:10:45.979Z,99276.13
2019-04-07T01:13:48.052Z,99281.57
2019-04-07T01:16:50.662Z,99277.21
2019-04-07T01:19:53.561Z,99278.31
2019-04-07T01:22:56.143Z,99279.67
2019-04-07T01:25:58.991Z,99278.87
2019-04-07T01:29:01.449Z,99270.94
2019-04-07T01:32:03.821Z,99274.77
2019-04-07T01:35:07.024Z,99273.95
2019-04-07T01:38:09.192Z,99275.03
2019-04-07T01:41:22.796Z,99275.58
2019-04-07T01:44:39.003Z,99284.87
2019-04-07T01:47:45.642Z,99283.50
2019-04-07T01:50:58.362Z,99282.38
2019-04-07T01:54:02.140Z,99273.07
2019-04-07T01:57:23.501Z,99273.91
2019-04-07T02:00:30.551Z,99277.45
2019-04-07T02:03:51.232Z,99279.34
2019-04-07T02:06:57.973Z,99273.86
2019-04-07T02:10:05.278Z,99274.06
2019-04-07T02:13:15.405Z,99277.31
2019-04-07T02:16:28.585Z,99271.30
2019-04-07T02:19:35.942Z,99269.91
2019-04-07T02:22:52.119Z,99275.09
2019-04-07T02:26:02.392Z,99277.50
2019-04-07T02:29:12.610Z,99280.48
2019-04-07T02:32:17.400Z,99275.56
2019-04-07T02:35:34.522Z,99271.47
2019-04-07T02:38:56.793Z,99284.54
2019-04-07T02:42:00.550Z,99273.09
2019-04-07T02:45:13.795Z,99283.36
2019-04-07T02:48:26.685Z,99282.44
2019-04-07T02:51:36.359Z,99285.88
2019-04-07T02:54:49.678Z,99284.48
2019-04-07T02:58:10.295Z,99287.47
2019-04-07T03:01:26.751Z,99281.67
2019-04-07T03:04:41.484Z,99275.64
2019-04-07T03:08:02.113Z,99288.73
2019-04-07T03:11:14.801Z,99289.00
2019-04-07T03:14:28.373Z,99297.95
2019-04-07T03:17:32.274Z,99294.90
2019-04-07T03:20:36.222Z,99293.19
2019-04-07T03:23:56.724Z,99295.61
2019-04-07T03:27:06.689Z,99299.42
2019-04-07T03:30:11.490Z,99294.75
2019-04-07T03:33:33.508Z,99301.59
2019-04-07T03:37:16.930Z,99299.49
2019-04-07T03:40:00.893Z,99295.19
2019-04-07T03:43:14.053Z,99300.34
2019-04-07T03:46:30.029Z,99300.61
2019-04-07T03:49:45.754Z,99303.55
2019-04-07T03:52:52.517Z,99305.13
2019-04-07T03:55:56.247Z,99308.67
2019-04-07T03:59:05.599Z,99303.25
2019-04-07T04:02:12.559Z,99302.47
2019-04-07T04:05:22.211Z,99305.16
2019-04-07T04:08:32.735Z,99312.53
2019-04-07T04:11:40.631Z,99314.68
2019-04-07T04:15:01.613Z,99311.17
2019-04-07T04:18:03.847Z,99319.88
2019-04-07T04:21:06.975Z,99316.31
2019-04-07T04:24:09.285Z,99322.33
2019-04-07T04:27:12.723Z,99322.59
2019-04-07T04:30:14.927Z,99323.33
2019-04-07T04:33:17.861Z,99332.31
2019-04-07T04:36:20.027Z,99338.08
2019-04-07T04:39:22.887Z,99332.11
2019-04-07T04:42:25.340Z,99338.47
2019-04-07T04:45:27.581Z,99334.78
2019-04-07T04:48:30.000Z,99337.59
2019-04-07T04:51:35.456Z,99332.52
2019-04-07T04:54:36.240Z,99333.41
2019-04-07T04:57:38.276Z,99337.58
2019-04-07T05:00:41.294Z,99348.01
2019-04-07T05:03:43.649Z,99338.41
2019-04-07T05:06:46.488Z,99343.00
2019-04-07T05:09:52.874Z,99344.34
2019-04-07T05:12:52.619Z,99345.17
2019-04-07T05:15:54.715Z,99342.58
2019-04-07T05:18:57.328Z,99340.94
2019-04-07T05:21:59.862Z,99346.33
2019-04-07T05:25:02.293Z,99342.27
2019-04-07T05:28:04.674Z,99348.64
2019-04-07T05:31:07.329Z,99350.34
2019-04-07T05:34:09.383Z,99350.80
2019-04-07T05:37:11.468Z,99351.00
2019-04-07T05:40:14.032Z,99347.56
2019-04-07T05:43:16.200Z,99355.72
2019-04-07T05:46:18.204Z,99357.86
2019-04-07T05:49:22.574Z,99353.63
2019-04-07T05:52:24.115Z,99353.02
2019-04-07T05:55:27.280Z,99353.61
2019-04-07T05:58:29.471Z,99354.36
2019-04-07T06:01:32.086Z,99357.94
2019-04-07T06:04:34.801Z,99362.86
2019-04-07T06:07:37.806Z,99362.17
2019-04-07T06:10:40.343Z,99360.67
2019-04-07T06:13:44.644Z,99356.60
2019-04-07T06:16:46.815Z,99355.00
2019-04-07T06:19:51.239Z,99361.63
2019-04-07T06:22:54.454Z,99366.19
2019-04-07T06:25:58.964Z,99364.63
2019-04-07T06:29:00.711Z,99361.36
2019-04-07T06:32:05.128Z,99364.58
2019-04-07T06:35:07.422Z,99366.15
2019-04-07T06:38:09.508Z,99370.44
2019-04-07T06:41:11.541Z,99371.50
2019-04-07T06:44:18.337Z,99365.12
2019-04-07T06:47:22.180Z,99366.59
2019-04-07T06:50:49.310Z,99365.81
2019-04-07T06:53:57.891Z,99365.50
2019-04-07T06:57:05.016Z,99367.87
2019-04-07T07:00:14.001Z,99366.50
2019-04-07T07:03:23.912Z,99366.69
2019-04-07T07:06:47.095Z,99362.09
2019-04-07T07:10:06.957Z,99354.61
2019-04-07T07:13:26.518Z,99354.61
2019-04-07T07:16:22.832Z,99367.26
2019-04-07T07:19:45.118Z,99368.98
2019-04-07T07:22:49.606Z,99368.98
2019-04-07T07:25:52.027Z,99379.69
2019-04-07T07:28:54.355Z,99371.02
2019-04-07T07:32:02.480Z,99378.76
2019-04-07T07:35:00.712Z,99376.09
2019-04-07T07:38:03.996Z,99375.52
2019-04-07T07:41:06.359Z,99374.56
2019-04-07T07:44:09.733Z,99372.30
2019-04-07T07:47:11.982Z,99374.14
2019-04-07T07:50:13.932Z,99373.05
2019-04-07T07:53:15.926Z,99370.91
2019-04-07T07:56:18.404Z,99375.95
2019-04-07T07:59:20.364Z,99380.81
2019-04-07T08:02:22.350Z,99380.22
2019-04-07T08:05:24.815Z,99383.56
2019-04-07T08:08:27.651Z,99387.67
2019-04-07T08:11:32.911Z,99389.84
2019-04-07T08:14:33.647Z,99383.80
2019-04-07T08:17:35.720Z,99382.20
2019-04-07T08:20:38.458Z,99384.02
2019-04-07T08:23:43.031Z,99387.14
2019-04-07T08:26:44.813Z,99392.77
2019-04-07T08:29:47.426Z,99395.02
2019-04-07T08:32:50.068Z,99391.28
2019-04-07T08:35:54.857Z,99397.92
2019-04-07T08:38:57.145Z,99391.06
2019-04-07T08:41:59.456Z,99389.38
2019-04-07T08:45:01.664Z,99386.42
2019-04-07T08:48:05.149Z,99395.41
2019-04-07T08:51:08.493Z,99398.91
2019-04-07T08:54:11.727Z,99395.55
2019-04-07T08:57:15.276Z,99388.88
2019-04-07T09:00:20.279Z,99391.02
2019-04-07T09:03:23.174Z,99379.62
2019-04-07T09:06:28.560Z,99380.59
2019-04-07T09:09:34.029Z,99387.23
2019-04-07T09:12:35.030Z,99385.59
2019-04-07T09:15:43.071Z,99379.91
2019-04-07T09:19:03.833Z,99384.06
2019-04-07T09:22:06.290Z,99384.85
2019-04-07T09:25:19.362Z,99374.38
2019-04-07T09:28:29.834Z,99385.63
2019-04-07T09:31:39.941Z,99371.77
2019-04-07T09:34:50.458Z,99373.41
2019-04-07T09:38:09.844Z,99373.45
2019-04-07T09:41:27.385Z,99378.09
2019-04-07T09:44:33.999Z,99373.12
2019-04-07T09:47:38.024Z,99376.42
2019-04-07T09:50:45.035Z,99381.38
2019-04-07T09:53:52.222Z,99379.62
2019-04-07T09:56:56.309Z,99382.34
2019-04-07T10:00:16.081Z,99379.70
2019-04-07T10:03:38.094Z,99379.42
2019-04-07T10:06:42.190Z,99379.09
2019-04-07T10:10:05.462Z,99383.30
2019-04-07T10:12:58.399Z,99381.61
2019-04-07T10:16:14.862Z,99381.42
2019-04-07T10:19:36.299Z,99377.30
2019-04-07T10:22:42.947Z,99388.97
2019-04-07T10:25:56.156Z,99387.20
2019-04-07T10:29:18.706Z,99377.45
2019-04-07T10:32:34.624Z,99386.63
2019-04-07T10:35:47.804Z,99375.72
2019-04-07T10:38:55.324Z,99380.12
2019-04-07T10:42:16.843Z,99381.02
2019-04-07T10:45:29.884Z,99373.38
2019-04-07T10:48:48.753Z,99373.52
2019-04-07T10:52:07.799Z,99372.34
2019-04-07T10:55:17.794Z,99372.92
2019-04-07T10:58:39.246Z,99369.41
2019-04-07T11:01:46.128Z,99371.41
2019-04-07T11:04:52.873Z,99366.70
2019-04-07T11:07:56.998Z,99365.73
2019-04-07T11:11:04.554Z,99362.73
2019-04-07T11:14:11.316Z,99359.81
2019-04-07T11:17:21.564Z,99358.77
2019-04-07T11:20:29.957Z,99361.16
2019-04-07T11:23:50.434Z,99368.68
2019-04-07T11:27:03.439Z,99367.25
2019-04-07T11:30:08.177Z,99366.19
2019-04-07T11:33:21.034Z,99362.75
2019-04-07T11:36:31.041Z,99364.15
2019-04-07T11:39:50.029Z,99363.70
2019-04-07T11:42:56.751Z,99371.01
2019-04-07T11:46:04.549Z,99366.60
2019-04-07T11:49:13.374Z,99363.62
2019-04-07T11:52:17.988Z,99369.55
2019-04-07T11:55:31.359Z,99367.82
2019-04-07T11:58:54.122Z,99363.83
2019-04-07T12:02:01.911Z,99364.70
2019-04-07T12:05:25.111Z,99364.23
2019-04-07T12:08:45.718Z,99364.73
2019-04-07T12:11:52.669Z,99362.23
2019-04-07T12:14:56.653Z,99360.03
2019-04-07T12:18:00.568Z,99359.77
2019-04-07T12:21:07.207Z,99352.41
2019-04-07T12:24:10.657Z,99352.41
2019-04-07T12:27:17.287Z,99346.02
2019-04-07T12:30:25.031Z,99345.88
2019-04-07T12:33:32.809Z,99341.83
2019-04-07T12:36:52.002Z,99341.11
2019-04-07T12:39:55.859Z,99304.81
2019-04-07T12:43:15.525Z,99332.35
2019-04-07T12:46:36.535Z,99328.48
2019-04-07T12:49:46.936Z,99327.72
2019-04-07T12:53:07.998Z,99332.33
2019-04-07T12:56:15.673Z,99326.92
2019-04-07T12:59:25.572Z,99327.37
2019-04-07T13:02:36.043Z,99327.37
2019-04-07T13:05:42.770Z,99319.97
2019-04-07T13:08:46.845Z,99323.22
2019-04-07T13:12:05.900Z,99320.80
2019-04-07T13:15:16.071Z,99316.28
2019-04-07T13:18:19.813Z,99293.99
2019-04-07T13:21:39.234Z,99313.43
2019-04-07T13:25:00.223Z,99313.06
2019-04-07T13:28:04.231Z,99310.27
2019-04-07T13:31:17.863Z,99313.13
2019-04-07T13:34:34.144Z,99304.85
2019-04-07T13:37:38.390Z,99303.62
2019-04-07T13:41:00.591Z,99299.17
2019-04-07T13:44:07.747Z,99298.56
2019-04-07T13:47:24.115Z,99295.31
2019-04-07T13:50:44.938Z,99298.53
2019-04-07T13:54:05.528Z,99300.34
2019-04-07T13:57:26.395Z,99301.39
2019-04-07T14:00:48.600Z,99300.52
2019-04-07T14:03:56.517Z,99295.34
2019-04-07T14:07:16.954Z,99288.72
2019-04-07T14:10:37.344Z,99296.53
2019-04-07T14:13:44.775Z,99292.75
2019-04-07T14:17:07.328Z,99281.95
2019-04-07T14:20:24.665Z,99281.95
2019-04-07T14:23:28.694Z,99292.66
2019-04-07T14:26:44.563Z,99292.50
2019-04-07T14:29:57.682Z,99294.98
2019-04-07T14:33:18.106Z,99295.20
2019-04-07T14:36:21.875Z,99292.66
2019-04-07T14:39:43.387Z,99288.45
2019-04-07T14:42:47.444Z,99286.84
2019-04-07T14:45:57.953Z,99285.70
2019-04-07T14:49:13.461Z,99292.00
2019-04-07T14:52:16.948Z,99282.92
2019-04-07T14:55:20.757Z,99287.77
2019-04-07T14:58:24.732Z,99286.63
2019-04-07T15:01:34.822Z,99284.60
2019-04-07T15:04:41.928Z,99282.67
2019-04-07T15:07:57.863Z,99280.75
2019-04-07T15:11:03.306Z,99279.99
2019-04-07T15:14:06.166Z,99279.48
2019-04-07T15:17:09.457Z,99275.72
2019-04-07T15:20:14.379Z,99277.23
2019-04-07T15:23:16.519Z,99280.03
2019-04-07T15:26:19.307Z,99277.39
2019-04-07T15:29:22.114Z,99278.45
2019-04-07T15:32:28.071Z,99288.62
2019-04-07T15:35:28.357Z,99277.47
2019-04-07T15:38:31.271Z,99276.84
2019-04-07T15:41:33.714Z,99279.63
2019-04-07T15:44:37.175Z,99277.75
2019-04-07T15:47:40.438Z,99287.00
2019-04-07T15:50:42.752Z,99284.68
2019-04-07T15:53:50.296Z,99286.44
2019-04-07T15:56:50.249Z,99285.98
2019-04-07T15:59:52.601Z,99288.88
2019-04-07T16:02:54.895Z,99293.27
2019-04-07T16:05:58.068Z,99292.95
2019-04-07T16:09:01.159Z,99294.26
2019-04-07T16:12:06.394Z,99292.91
2019-04-07T16:15:09.743Z,99294.41
2019-04-07T16:18:12.671Z,99290.45
2019-04-07T16:21:14.716Z,99296.02
2019-04-07T16:24:16.775Z,99300.67
2019-04-07T16:27:19.293Z,99306.48
2019-04-07T16:30:23.232Z,99300.80
2019-04-07T16:33:26.155Z,99304.62
2019-04-07T16:36:28.283Z,99311.42
2019-04-07T16:39:33.502Z,99310.50
2019-04-07T16:42:34.244Z,99308.53
2019-04-07T16:45:36.713Z,99318.69
2019-04-07T16:48:40.242Z,99307.80
2019-04-07T16:51:42.786Z,99308.05
2019-04-07T16:54:45.789Z,99314.95
2019-04-07T16:57:48.236Z,99303.14
2019-04-07T17:00:50.347Z,99304.52
2019-04-07T17:03:52.410Z,99310.74
2019-04-07T17:07:03.276Z,99308.64
2019-04-07T17:10:02.421Z,99306.96
2019-04-07T17:13:16.961Z,99304.59
2019-04-07T17:16:12.199Z,99308.67
2019-04-07T17:19:16.174Z,99318.23
2019-04-07T17:22:19.764Z,99314.95
2019-04-07T17:25:22.804Z,99321.91
2019-04-07T17:28:25.063Z,99314.16
2019-04-07T17:31:29.991Z,99322.88
2019-04-07T17:34:32.552Z,99325.22
2019-04-07T17:37:37.401Z,99328.13
2019-04-07T17:40:47.005Z,99329.39
2019-04-07T17:43:59.039Z,99332.60
2019-04-07T17:47:04.149Z,99336.95
2019-04-07T17:50:16.773Z,99332.42
2019-04-07T17:53:21.264Z,99337.98
2019-04-07T17:56:42.844Z,99340.63
2019-04-07T17:59:52.082Z,99345.52
2019-04-07T18:03:15.332Z,99342.44
2019-04-07T18:06:19.911Z,99348.16
2019-04-07T18:09:24.802Z,99354.64
2019-04-07T18:12:34.700Z,99353.30
2019-04-07T18:15:43.404Z,99356.36
2019-04-07T18:18:59.167Z,99358.06
2019-04-07T18:22:02.390Z,99362.77
2019-04-07T18:25:17.369Z,99361.26
2019-04-07T18:28:25.960Z,99365.58
2019-04-07T18:31:45.468Z,99369.92
2019-04-07T18:34:49.661Z,99368.01
2019-04-07T18:38:11.185Z,99369.86
2019-04-07T18:41:20.638Z,99371.95
2019-04-07T18:44:41.022Z,99373.02
2019-04-07T18:47:59.934Z,99376.01
2019-04-07T18:51:19.902Z,99377.02
2019-04-07T18:54:25.016Z,99382.48
2019-04-07T18:57:46.666Z,99380.55
2019-04-07T19:01:08.778Z,99384.05
2019-04-07T19:04:30.432Z,99384.53
2019-04-07T19:07:37.939Z,99387.29
2019-04-07T19:10:42.527Z,99391.06
2019-04-07T19:13:59.455Z,99390.09
2019-04-07T19:17:00.824Z,99391.05
2019-04-07T19:20:12.992Z,99392.30
2019-04-07T19:23:24.224Z,99393.27
2019-04-07T19:26:41.022Z,99398.66
2019-04-07T19:29:57.448Z,99394.58
2019-04-07T19:33:02.839Z,99395.14
2019-04-07T19:36:18.052Z,99391.63
2019-04-07T19:39:32.864Z,99392.20
2019-04-07T19:42:48.166Z,99383.47
2019-04-07T19:46:07.107Z,99392.73
2019-04-07T19:49:21.736Z,99391.62
2019-04-07T19:52:27.753Z,99398.27
2019-04-07T19:55:32.464Z,99394.61
2019-04-07T19:58:55.711Z,99400.21
2019-04-07T20:02:11.864Z,99395.78
2019-04-07T20:05:21.588Z,99393.43
2019-04-07T20:08:44.101Z,99392.27
2019-04-07T20:11:51.438Z,99390.46
2019-04-07T20:15:08.836Z,99396.98
2019-04-07T20:18:28.335Z,99397.88
2019-04-07T20:21:53.244Z,99401.02
2019-04-07T20:25:15.986Z,99396.94
2019-04-07T20:28:35.847Z,99393.20
2019-04-07T20:31:53.692Z,99397.18
2019-04-07T20:35:01.282Z,99395.59
2019-04-07T20:38:07.787Z,99395.28
2019-04-07T20:41:26.761Z,99398.30
2019-04-07T20:44:58.507Z,99405.80
2019-04-07T20:48:08.079Z,99403.72
2019-04-07T20:51:17.385Z,99402.34
2019-04-07T20:54:31.501Z,99396.81
2019-04-07T20:57:48.203Z,99398.54
2019-04-07T21:01:04.637Z,99397.92
2019-04-07T21:04:19.929Z,99399.11
2019-04-07T21:07:42.885Z,99396.36
2019-04-07T21:10:47.285Z,99390.98
2019-04-07T21:13:54.566Z,99387.48
2019-04-07T21:17:15.470Z,99380.94
2019-04-07T21:20:20.097Z,99390.91
2019-04-07T21:23:31.610Z,99394.10
2019-04-07T21:26:35.980Z,99396.11
2019-04-07T21:29:57.988Z,99397.00
2019-04-07T21:33:11.163Z,99397.63
2019-04-07T21:36:17.931Z,99399.38
2019-04-07T21:39:34.399Z,99403.54
2019-04-07T21:42:41.252Z,99395.69
2019-04-07T21:45:53.343Z,99398.80
2019-04-07T21:49:13.854Z,99398.26
2019-04-07T21:52:23.056Z,99400.44
2019-04-07T21:55:26.535Z,99383.72
2019-04-07T21:58:34.333Z,99387.50
2019-04-07T22:01:44.077Z,99388.66
2019-04-07T22:05:00.764Z,99385.96
2019-04-07T22:08:10.505Z,99393.95
2019-04-07T22:11:09.264Z,99392.06
2019-04-07T22:14:14.669Z,99397.05
2019-04-07T22:17:16.931Z,99398.98
2019-04-07T22:20:20.382Z,99401.44
2019-04-07T22:23:23.026Z,99399.51
2019-04-07T22:26:24.955Z,99407.20
2019-04-07T22:29:26.890Z,99401.19
2019-04-07T22:32:28.943Z,99402.55
2019-04-07T22:35:30.845Z,99400.93
2019-04-07T22:38:33.621Z,99406.45
2019-04-07T22:41:36.976Z,99398.03
2019-04-07T22:44:39.841Z,99396.40
2019-04-07T22:47:41.887Z,99399.20
2019-04-07T22:50:43.929Z,99398.02
2019-04-07T22:53:45.902Z,99401.39
2019-04-07T22:56:48.622Z,99398.40
2019-04-07T22:59:50.744Z,99401.44
2019-04-07T23:02:52.779Z,99396.80
2019-04-07T23:05:55.484Z,99394.62
2019-04-07T23:08:57.516Z,99398.73
2019-04-07T23:12:01.738Z,99396.81
2019-04-07T23:15:06.350Z,99394.38
2019-04-07T23:18:08.267Z,99396.31
2019-04-07T23:21:10.182Z,99397.94
2019-04-07T23:24:12.928Z,99408.41
2019-04-07T23:27:15.341Z,99406.56
2019-04-07T23:30:21.447Z,99401.94
2019-04-07T23:33:23.403Z,99406.30
2019-04-07T23:36:26.356Z,99415.62
2019-04-07T23:39:29.257Z,99410.45
2019-04-07T23:42:31.549Z,99419.20
2019-04-07T23:45:33.741Z,99420.31
2019-04-07T23:48:35.792Z,99415.67
2019-04-07T23:51:37.859Z,99417.86
2019-04-07T23:54:39.828Z,99418.12
2019-04-07T23:57:42.358Z,99416.48
